ADDS METAR Data INFO
IDs: Format: Raw Decoded Include TAF

Data at: 1119 UTC 21 Feb 2018

PADU 201456Z AUTO 14011KT 9SM FEW024 BKN120 04/01 A3047 RMK AO2 SLP323 T00440011 55010
PADU 201451Z AUTO 15009KT 9SM SCT024 SCT120 04/01 A3047 RMK AO2
PADU 201438Z AUTO 14006KT 10SM BKN024 BKN032 04/01 A3047 RMK AO2
PADU 201414Z AUTO 14007KT 100V160 10SM SCT024 SCT033 05/00 A3045 RMK AO2
PADU 201356Z AUTO 16005KT 9SM BKN024 04/01 A3047 RMK AO2 SLP322 T00440011
PADU 201256Z AUTO 16004KT 10SM BKN022 OVC028 04/01 A3050 RMK AO2 SLP333 T00440011
PADU 201156Z AUTO 17007KT 10SM BKN024 OVC029 04/01 A3050 RMK AO2 SLP333 70001 T00390006 10056 20028 51009
PADU 201140Z AUTO 18008KT 10SM SCT024 BKN029 04/01 A3049 RMK AO2
PADU 201056Z AUTO 00000KT 10SM OVC033 03/00 A3048 RMK AO2 SLP327 T00280000
PADU 200956Z AUTO 00000KT 10SM OVC039 04/00 A3049 RMK AO2 SLP330 T00390000
PADU 200856Z AUTO 00000KT 10SM OVC039 04/00 A3047 RMK AO2 SLP323 T00440000 400830039 51018
PADU 200756Z AUTO 00000KT 10SM OVC039 04/00 A3046 RMK AO2 SLP319 T00440000
PADU 200656Z AUTO 02003KT 10SM OVC041 04/M01 A3044 RMK AO2 SLP313 T00441011
PADU 200556Z AUTO 00000KT 10SM SCT041 05/M01 A3042 RMK AO2 SLP305 T00501006 10072 20044 51036
PADU 200456Z AUTO 25004KT 10SM OVC041 06/00 A3039 RMK AO2 SLP295 T00560000
PADU 200404Z 00000KT 10SM BKN039 06/01 A3035 RMK AO2 LAST MH
PADU 200356Z 18005KT 10SM BKN039 06/01 A3035 RMK AO2 SLP283 MH T00610006
PADU 200256Z 23009KT 10SM SCT039 07/M01 A3031 RMK AO2 SLP269 MH T00671006 53030
PADU 200156Z 22012KT 10SM FEW035 07/00 A3028 RMK AO2 SLP258 MH T00670000
PADU 200056Z 20015KT 10SM FEW033 07/M01 A3024 RMK AO2 SLP246 MH T00721006
PADU 192356Z 25008KT 10SM FEW035 SCT200 07/01 A3022 RMK AO2 SLP239 MH 60000 T00670006 10083 20067 51030